createdAt,value
2023-02-02T00:01:37.580Z,9.88
2023-02-02T00:06:41.265Z,9.05
2023-02-02T00:11:48.624Z,8.50
2023-02-02T00:16:54.270Z,9.40
2023-02-02T00:21:58.721Z,9.57
2023-02-02T00:27:04.079Z,9.80
2023-02-02T00:32:08.063Z,9.88
2023-02-02T00:37:11.742Z,10.27
2023-02-02T00:42:16.841Z,9.07
2023-02-02T00:47:20.611Z,10.52
2023-02-02T00:52:25.251Z,8.30
2023-02-02T00:57:30.334Z,7.78
2023-02-02T01:02:34.426Z,10.00
2023-02-02T01:07:38.127Z,9.85
2023-02-02T01:12:43.559Z,10.02
2023-02-02T01:17:47.638Z,8.98
2023-02-02T01:22:51.815Z,10.52
2023-02-02T01:27:56.797Z,9.52
2023-02-02T01:33:00.572Z,8.52
2023-02-02T01:38:04.280Z,9.20
2023-02-02T01:43:25.107Z,11.35
2023-02-02T01:48:34.378Z,8.45
2023-02-02T01:53:38.373Z,9.40
2023-02-02T01:58:44.956Z,7.70
2023-02-02T02:03:48.758Z,8.25
2023-02-02T02:08:58.168Z,8.98
2023-02-02T02:14:26.978Z,7.78
2023-02-02T02:20:54.191Z,8.27
2023-02-02T02:26:35.143Z,9.25
2023-02-02T02:32:08.193Z,9.48
2023-02-02T02:37:20.494Z,9.10
2023-02-02T02:42:28.582Z,9.27
2023-02-02T02:47:34.818Z,10.10
2023-02-02T02:52:40.385Z,9.60
2023-02-02T02:58:09.686Z,8.43
2023-02-02T03:03:28.350Z,9.23
2023-02-02T03:08:40.009Z,8.43
2023-02-02T03:13:44.996Z,9.30
2023-02-02T03:18:50.069Z,8.63
2023-02-02T03:23:53.863Z,8.60
2023-02-02T03:28:58.631Z,8.20
2023-02-02T03:34:03.748Z,8.57
2023-02-02T03:39:07.461Z,8.52
2023-02-02T03:44:11.247Z,7.82
2023-02-02T03:49:16.537Z,8.50
2023-02-02T03:54:20.167Z,8.00
2023-02-02T03:59:24.101Z,8.90
2023-02-02T04:04:29.307Z,7.65
2023-02-02T04:09:32.990Z,8.73
2023-02-02T04:14:36.674Z,8.75
2023-02-02T04:19:41.825Z,8.88
2023-02-02T04:24:45.563Z,8.45
2023-02-02T04:29:49.417Z,6.78
2023-02-02T04:34:54.575Z,7.57
2023-02-02T04:39:58.348Z,6.40
2023-02-02T04:45:02.078Z,8.43
2023-02-02T04:50:09.466Z,7.88
2023-02-02T04:55:13.224Z,7.03
2023-02-02T05:00:17.870Z,7.70
2023-02-02T05:05:23.388Z,7.00
2023-02-02T05:10:27.663Z,8.95
2023-02-02T05:15:31.334Z,7.13
2023-02-02T05:20:36.350Z,6.95
2023-02-02T05:25:39.993Z,5.93
2023-02-02T05:30:43.606Z,6.38
2023-02-02T05:35:49.868Z,6.28
2023-02-02T05:40:53.675Z,7.20
2023-02-02T05:45:57.586Z,7.63
2023-02-02T05:51:07.157Z,7.65
2023-02-02T05:56:10.948Z,7.82
2023-02-02T06:01:15.287Z,6.72
2023-02-02T06:06:20.275Z,6.18
2023-02-02T06:11:23.919Z,5.85
2023-02-02T06:16:27.885Z,5.28
2023-02-02T06:21:33.370Z,5.22
2023-02-02T06:26:37.175Z,7.03
2023-02-02T06:31:40.931Z,5.43
2023-02-02T06:36:45.957Z,5.88
2023-02-02T06:41:49.593Z,6.47
2023-02-02T06:46:53.285Z,8.35
2023-02-02T06:51:58.358Z,7.18
2023-02-02T06:57:02.020Z,6.93
2023-02-02T07:02:05.664Z,6.78
2023-02-02T07:07:10.719Z,7.47
2023-02-02T07:12:14.327Z,7.97
2023-02-02T07:17:18.072Z,7.10
2023-02-02T07:22:23.082Z,7.03
2023-02-02T07:27:26.725Z,5.97
2023-02-02T07:32:30.364Z,6.63
2023-02-02T07:37:35.392Z,8.50
2023-02-02T07:42:39.040Z,6.90
2023-02-02T07:47:42.683Z,6.68
2023-02-02T07:52:47.659Z,6.90
2023-02-02T07:57:55.485Z,5.60
2023-02-02T08:02:59.256Z,7.10
2023-02-02T08:08:04.586Z,8.10
2023-02-02T08:13:08.202Z,7.55
2023-02-02T08:18:11.876Z,5.80
2023-02-02T08:23:16.960Z,8.02
2023-02-02T08:28:20.924Z,6.63
2023-02-02T08:33:24.500Z,5.75
2023-02-02T08:38:30.946Z,6.03
2023-02-02T08:43:34.762Z,5.50
2023-02-02T08:48:38.963Z,5.60
2023-02-02T08:53:44.797Z,6.95
2023-02-02T08:58:51.954Z,7.60
2023-02-02T09:03:57.281Z,6.65
2023-02-02T09:09:02.609Z,6.18
2023-02-02T09:14:07.371Z,5.43
2023-02-02T09:19:13.153Z,7.47
2023-02-02T09:24:20.006Z,6.05
2023-02-02T09:29:23.696Z,7.05
2023-02-02T09:34:27.319Z,6.57
2023-02-02T09:39:32.356Z,6.70
2023-02-02T09:45:08.219Z,6.10
2023-02-02T09:50:22.904Z,6.28
2023-02-02T09:55:36.202Z,6.20
2023-02-02T10:00:46.658Z,6.50
2023-02-02T10:05:59.018Z,6.03
2023-02-02T10:11:23.966Z,6.07
2023-02-02T10:16:28.015Z,5.35
2023-02-02T10:21:42.528Z,5.28
2023-02-02T10:26:51.101Z,5.88
2023-02-02T10:32:12.206Z,4.35
2023-02-02T10:37:34.843Z,5.40
2023-02-02T10:43:17.208Z,5.80
2023-02-02T10:48:30.352Z,4.82
2023-02-02T10:53:35.119Z,5.40
2023-02-02T10:58:48.316Z,7.78
2023-02-02T11:04:13.196Z,5.43
2023-02-02T11:09:21.632Z,6.00
2023-02-02T11:14:45.424Z,7.05
2023-02-02T11:19:51.386Z,6.63
2023-02-02T11:24:55.996Z,6.97
2023-02-02T11:30:13.641Z,6.20
2023-02-02T11:35:24.014Z,6.90
2023-02-02T11:40:36.721Z,5.55
2023-02-02T11:45:44.385Z,4.75
2023-02-02T11:50:51.550Z,5.23
2023-02-02T11:55:57.819Z,6.38
2023-02-02T12:01:06.305Z,4.80
2023-02-02T12:06:23.397Z,4.85
2023-02-02T12:11:42.395Z,4.80
2023-02-02T12:17:02.484Z,7.03
2023-02-02T12:22:25.451Z,6.00
2023-02-02T12:27:44.283Z,6.90
2023-02-02T12:33:23.054Z,5.95
2023-02-02T12:38:55.491Z,5.82
2023-02-02T12:44:08.369Z,5.95
2023-02-02T12:50:01.960Z,5.32
2023-02-02T12:55:19.411Z,5.47
2023-02-02T13:01:04.776Z,6.10
2023-02-02T13:06:48.999Z,5.47
2023-02-02T13:11:57.452Z,3.97
2023-02-02T13:17:13.191Z,5.03
2023-02-02T13:22:26.829Z,3.92
2023-02-02T13:27:32.264Z,5.95
2023-02-02T13:32:40.171Z,6.40
2023-02-02T13:37:54.933Z,5.68
2023-02-02T13:43:16.688Z,4.22
2023-02-02T13:48:34.262Z,4.95
2023-02-02T13:54:15.935Z,5.87
2023-02-02T13:59:49.182Z,4.28
2023-02-02T14:04:59.156Z,4.15
2023-02-02T14:10:05.607Z,3.75
2023-02-02T14:15:13.377Z,5.45
2023-02-02T14:20:49.498Z,4.72
2023-02-02T14:26:09.675Z,4.85
2023-02-02T14:31:44.326Z,5.00
2023-02-02T14:37:32.856Z,4.78
2023-02-02T14:43:15.739Z,5.82
2023-02-02T14:48:21.094Z,6.03
2023-02-02T14:53:30.417Z,4.57
2023-02-02T14:58:39.786Z,3.80
2023-02-02T15:03:54.909Z,3.45
2023-02-02T15:09:38.718Z,3.65
2023-02-02T15:14:51.401Z,4.70
2023-02-02T15:20:09.647Z,2.95
2023-02-02T15:25:21.823Z,5.60
2023-02-02T15:30:33.570Z,4.88
2023-02-02T15:35:38.319Z,4.45
2023-02-02T15:40:42.610Z,6.07
2023-02-02T15:45:54.079Z,3.53
2023-02-02T15:51:01.439Z,4.20
2023-02-02T15:56:27.042Z,4.47
2023-02-02T16:01:46.240Z,5.40
2023-02-02T16:06:50.955Z,5.43
2023-02-02T16:11:54.767Z,5.78
2023-02-02T16:17:13.916Z,4.18
2023-02-02T16:22:23.848Z,7.00
2023-02-02T16:27:30.392Z,4.57
2023-02-02T16:32:39.192Z,6.85
2023-02-02T16:37:42.922Z,4.90
2023-02-02T16:42:46.587Z,5.38
2023-02-02T16:47:54.888Z,5.45
2023-02-02T16:53:03.398Z,4.68
2023-02-02T16:58:07.342Z,3.45
2023-02-02T17:03:16.587Z,3.75
2023-02-02T17:08:29.325Z,5.72
2023-02-02T17:13:41.415Z,5.05
2023-02-02T17:18:46.774Z,4.38
2023-02-02T17:23:54.182Z,4.60
2023-02-02T17:29:00.142Z,4.60
2023-02-02T17:34:11.568Z,5.25
2023-02-02T17:39:15.206Z,5.90
2023-02-02T17:44:18.836Z,3.90
2023-02-02T17:49:24.501Z,3.60
2023-02-02T17:54:28.089Z,5.47
2023-02-02T17:59:31.666Z,4.57
2023-02-02T18:04:37.636Z,5.05
2023-02-02T18:09:41.233Z,4.15
2023-02-02T18:14:44.856Z,4.05
2023-02-02T18:19:51.233Z,4.05
2023-02-02T18:24:54.965Z,5.57
2023-02-02T18:29:58.552Z,5.15
2023-02-02T18:35:03.663Z,4.32
2023-02-02T18:40:09.026Z,3.35
2023-02-02T18:45:12.810Z,4.40
2023-02-02T18:50:18.426Z,5.13
2023-02-02T18:55:23.007Z,3.10
2023-02-02T19:00:27.604Z,3.38
2023-02-02T19:05:50.336Z,4.28
2023-02-02T19:11:01.697Z,3.67
2023-02-02T19:16:15.918Z,4.53
2023-02-02T19:21:21.101Z,4.20
2023-02-02T19:26:28.120Z,5.63
2023-02-02T19:31:31.924Z,4.63
2023-02-02T19:36:38.459Z,4.93
2023-02-02T19:41:43.223Z,4.85
2023-02-02T19:46:51.949Z,5.03
2023-02-02T19:51:58.868Z,3.67
2023-02-02T19:57:15.731Z,4.70
2023-02-02T20:02:50.232Z,4.22
2023-02-02T20:08:02.264Z,4.65
2023-02-02T20:13:17.935Z,4.00
2023-02-02T20:18:25.377Z,3.97
2023-02-02T20:23:42.170Z,5.17
2023-02-02T20:28:47.242Z,7.07
2023-02-02T20:33:54.264Z,3.95
2023-02-02T20:39:08.227Z,3.50
2023-02-02T20:44:12.426Z,3.55
2023-02-02T20:49:16.167Z,5.00
2023-02-02T20:54:21.240Z,4.15
2023-02-02T20:59:25.179Z,5.47
2023-02-02T21:04:29.113Z,4.60
2023-02-02T21:09:34.113Z,5.63
2023-02-02T21:14:37.899Z,5.35
2023-02-02T21:19:41.612Z,5.40
2023-02-02T21:24:46.567Z,6.05
2023-02-02T21:29:50.169Z,4.65
2023-02-02T21:34:53.813Z,4.97
2023-02-02T21:40:00.945Z,4.95
2023-02-02T21:45:34.563Z,5.80
2023-02-02T21:50:42.537Z,6.55
2023-02-02T21:55:52.212Z,4.45
2023-02-02T22:01:00.700Z,7.28
2023-02-02T22:06:29.293Z,6.03
2023-02-02T22:11:45.548Z,6.35
2023-02-02T22:16:53.629Z,6.72
2023-02-02T22:27:40.092Z,5.95
2023-02-02T22:32:43.763Z,5.82
2023-02-02T22:37:47.636Z,7.95
2023-02-02T22:42:54.731Z,6.40
2023-02-02T22:47:58.518Z,6.57
2023-02-02T22:53:02.672Z,7.25
2023-02-02T22:58:07.735Z,7.88
2023-02-02T23:03:11.780Z,7.72
2023-02-02T23:08:15.388Z,5.70
2023-02-02T23:13:20.692Z,6.60
2023-02-02T23:18:24.363Z,6.47
2023-02-02T23:23:27.946Z,6.97
2023-02-02T23:28:32.958Z,6.65
2023-02-02T23:33:36.656Z,6.65
2023-02-02T23:38:40.426Z,8.77
2023-02-02T23:43:45.481Z,6.90
2023-02-02T23:48:49.402Z,6.60
2023-02-02T23:53:53.140Z,7.95
2023-02-02T23:58:58.166Z,6.85
